Latest Weather Observations for Tuggeranong

IDN60901

Issued at 1:35 pm EDT Saturday 22 November 2014 (issued every 10 minutes, with the page automatically refreshed every 10 minutes)

About weather observations | Map of Canberra area stations | Latest observations for Canberra area | Other Formats
Station Details ID: 070339 Name: TUGGERANONG (ISABELLA PLAINS) AWS Lat: -35.42 Lon: 149.09 Height: 586.7 m
Data from the previous 72 hours. | See also: Recent months at Tuggeranong
Date/Time
EDT
Tmp

°C
App
Tmp
°C
Dew
Point
°C
Rel
Hum
%
Delta-T

°C
Wind Press
QNH
hPa
Press
MSL
hPa
Rain
since
9 am
mm
Dir
 
Spd
km/h
Gust
km/h
Spd
kts
Gust
kts
22/01:30pm 28.4 26.1 10.6 33 10.4 WNW 13 24 7 13 1012.9 1011.1 0.0
22/01:00pm 28.3 25.3 10.5 33 10.3 W 17 24 9 13 1013.3 1011.6 0.0
22/12:30pm 27.3 25.4 11.7 37 9.2 WSW 13 20 7 11 1013.5 1011.8 0.0
22/12:00pm 26.0 24.7 12.5 43 8.0 N 11 17 6 9 1014.3 1012.5 0.0
22/11:30am 24.7 23.3 13.3 49 6.8 N 13 22 7 12 1014.7 1013.0 0.0
22/11:00am 23.8 23.2 13.6 52 6.1 WNW 9 19 5 10 1015.1 1013.4 0.0
22/10:30am 22.6 21.4 12.8 54 5.8 NNW 11 19 6 10 1015.5 1013.8 0.0
22/10:00am 21.8 21.2 13.4 59 5.0 N 9 20 5 11 1015.7 1013.9 0.0
22/09:30am 20.3 19.5 12.8 62 4.4 NNE 9 17 5 9 1015.8 1014.0 0.0
22/09:00am 19.4 18.4 12.4 64 4.0 E 9 15 5 8 1015.8 1014.0 0.0
22/08:30am 18.9 18.5 12.9 68 3.5 ENE 7 13 4 7 1015.9 1014.1 0.0
22/08:00am 17.6 17.2 12.5 72 2.9 E 6 9 3 5 1015.8 1014.0 0.0
22/07:30am 17.2 16.6 12.3 73 2.8 NE 7 9 4 5 1015.7 1013.9 0.0
22/07:00am 16.9 17.1 13.0 78 2.2 E 4 9 2 5 1015.5 1013.8 0.0
22/06:30am 16.6 17.1 12.9 79 2.1 NE 2 7 1 4 1015.9 1014.1 0.0
22/06:00am 16.4 16.5 12.8 79 2.1 NNE 4 7 2 4 1015.7 1013.9 0.0
22/05:30am 16.4 15.9 12.8 79 2.1 NNE 7 9 4 5 1015.5 1013.8 0.0
22/05:00am 16.3 16.8 12.8 80 2.0 NNE 2 7 1 4 1015.2 1013.5 0.0
22/04:30am 16.2 15.9 12.7 80 2.0 NNE 6 9 3 5 1015.1 1013.4 0.0
22/04:00am 16.1 15.6 12.8 81 1.9 NE 7 7 4 4 1014.8 1013.1 0.0
22/03:30am 15.9 16.4 12.8 82 1.8 SE 2 7 1 4 1014.7 1013.0 0.0
22/03:00am 15.7 15.8 12.6 82 1.8 ESE 4 6 2 3 1014.6 1012.9 0.0
22/02:30am 15.4 16.2 12.7 84 1.5 CALM 0 0 0 0 1014.8 1013.1 0.0
22/02:00am 15.2 14.8 12.3 83 1.6 E 6 9 3 5 1014.7 1013.0 0.0
22/01:30am 15.6 15.1 12.5 82 1.8 ENE 7 13 4 7 1014.8 1013.1 0.0
22/01:00am 16.0 14.7 12.6 80 1.9 ENE 11 20 6 11 1014.9 1013.2 0.0
22/12:30am 16.4 14.0 12.6 78 2.2 ENE 17 30 9 16 1014.6 1012.9 0.0
22/12:00am 17.0 14.2 12.5 75 2.6 ENE 19 32 10 17 1014.5 1012.8 0.0
 
Date/Time
EDT
Tmp

°C
App
Tmp
°C
Dew
Point
°C
Rel
Hum
%
Delta-T

°C
Wind Press
QNH
hPa
Press
MSL
hPa
Rain
since
9 am
mm
Dir
 
Spd
km/h
Gust
km/h
Spd
kts
Gust
kts
21/11:30pm 18.2 15.0 12.0 67 3.5 ENE 20 30 11 16 1014.2 1012.4 0.0
21/11:00pm 18.2 17.8 9.8 58 4.6 NNW 2 6 1 3 1014.1 1012.3 0.0
21/10:30pm 18.7 17.5 9.5 55 5.0 NW 6 7 3 4 1013.9 1012.1 0.0
21/10:00pm 19.7 18.2 8.4 48 6.1 NW 6 7 3 4 1013.7 1012.0 0.0
21/09:30pm 21.7 20.1 8.6 43 7.1 N 7 9 4 5 1013.3 1011.6 0.0
21/09:00pm 22.9 21.2 8.2 39 8.0 NNW 7 9 4 5 1013.0 1011.3 0.0
21/08:30pm 23.6 21.4 7.7 36 8.6 NNW 9 13 5 7 1012.5 1010.7 0.0
21/08:00pm 24.5 21.9 7.6 34 9.2 NW 11 17 6 9 1012.1 1010.3 0.0
21/07:30pm 25.8 22.5 7.9 32 9.8 WNW 15 22 8 12 1011.5 1009.8 0.0
21/07:00pm 26.6 22.8 7.6 30 10.4 WNW 17 26 9 14 1011.0 1009.2 0.0
21/06:30pm 27.5 24.4 8.9 31 10.5 WNW 15 22 8 12 1010.4 1008.6 0.0
21/06:00pm 27.9 23.9 8.2 29 11.0 WNW 19 28 10 15 1010.0 1008.3 0.0
21/05:30pm 28.0 23.8 8.3 29 11.0 WNW 20 32 11 17 1009.6 1007.8 0.0
21/05:00pm 27.9 23.6 9.2 31 10.6 WNW 22 35 12 19 1009.6 1007.8 0.0
21/04:30pm 28.7 24.9 9.9 31 10.8 WNW 20 37 11 20 1009.4 1007.6 0.0
21/04:00pm 29.0 25.2 9.7 30 11.1 WNW 20 35 11 19 1009.6 1007.8 0.0
21/03:30pm 28.2 24.5 9.5 31 10.7 WNW 19 33 10 18 1009.7 1007.9 0.0
21/03:00pm 28.1 24.2 9.4 31 10.7 WNW 20 33 11 18 1009.7 1007.9 0.0
21/02:30pm 27.9 22.3 8.7 30 10.8 W 28 41 15 22 1009.8 1008.0 0.0
21/02:00pm 27.7 22.9 9.0 31 10.6 W 24 35 13 19 1010.0 1008.3 0.0
21/01:30pm 27.5 22.6 9.8 33 10.1 W 26 35 14 19 1010.0 1008.3 0.0
21/01:00pm 26.7 21.5 10.4 36 9.4 WNW 28 37 15 20 1010.1 1008.4 0.0
21/12:30pm 26.7 22.9 11.2 38 9.0 NW 22 39 12 21 1009.9 1008.2 0.0
21/12:00pm 26.5 22.5 10.6 37 9.2 NW 22 32 12 17 1009.8 1008.0 0.0
21/11:30am 27.3 24.0 10.9 36 9.5 WNW 19 26 10 14 1009.9 1008.2 0.0
21/11:00am 26.4 22.3 10.1 36 9.3 W 22 37 12 20 1010.0 1008.3 0.0
21/10:30am 25.8 20.9 10.0 37 9.0 W 26 43 14 23 1010.0 1008.3 0.0
21/10:00am 25.4 21.1 9.3 36 9.0 NW 22 39 12 21 1009.8 1008.0 0.0
21/09:30am 24.7 21.2 8.6 36 8.9 NW 17 24 9 13 1009.7 1007.9 0.0
21/09:00am 25.0 22.1 8.1 34 9.3 WNW 13 19 7 10 1009.7 1007.9 0.0
21/08:30am 23.9 20.3 8.3 37 8.5 NW 17 24 9 13 1009.6 1007.8 0.0
21/08:00am 21.4 20.6 8.3 43 7.1 NE 2 11 1 6 1009.4 1007.6 0.0
21/07:30am 19.3 19.6 10.8 58 4.7 CALM 0 0 0 0 1009.4 1007.6 0.0
21/07:00am 17.0 16.3 10.1 64 3.8 WSW 4 7 2 4 1009.0 1007.2 0.0
21/06:30am 16.1 16.0 10.8 71 2.9 ENE 2 7 1 4 1008.8 1007.0 0.0
21/06:00am 14.5 14.9 11.1 80 1.9 CALM 0 0 0 0 1008.9 1007.1 0.0
21/05:30am 14.3 13.6 10.1 76 2.3 ENE 4 7 2 4 1008.9 1007.1 0.0
21/05:00am 14.4 13.5 10.6 78 2.1 NE 6 6 3 3 1008.5 1006.7 0.0
21/04:30am 13.6 13.5 9.6 77 2.1 CALM 0 0 0 0 1008.2 1006.4 0.0
21/04:00am 14.9 14.9 9.7 71 2.8 CALM 0 0 0 0 1007.7 1005.9 0.0
21/03:30am 16.2 16.3 10.3 68 3.2 CALM 0 6 0 3 1007.8 1006.0 0.0
21/03:00am 16.3 16.3 9.9 66 3.5 CALM 0 0 0 0 1008.0 1006.2 0.0
21/02:30am 17.1 17.2 10.2 64 3.8 CALM 0 0 0 0 1008.4 1006.5 0.0
21/02:00am 17.8 18.1 10.9 64 3.8 CALM 0 0 0 0 1008.8 1007.0 0.0
21/01:30am 17.2 17.4 10.6 65 3.6 CALM 0 7 0 4 1009.0 1007.2 0.0
21/01:00am 17.6 17.4 10.5 63 3.9 ESE 2 7 1 4 1009.0 1007.2 0.0
21/12:30am 16.9 17.0 10.1 64 3.7 CALM 0 0 0 0 1009.0 1007.2 0.0
21/12:00am 17.7 17.6 9.3 58 4.5 CALM 0 6 0 3 1009.0 1007.2 0.0
 
Date/Time
EDT
Tmp

°C
App
Tmp
°C
Dew
Point
°C
Rel
Hum
%
Delta-T

°C
Wind Press
QNH
hPa
Press
MSL
hPa
Rain
since
9 am
mm
Dir
 
Spd
km/h
Gust
km/h
Spd
kts
Gust
kts
20/11:30pm 19.1 17.8 9.9 55 5.0 ESE 7 11 4 6 1009.0 1007.2 0.0
20/11:00pm 20.3 19.2 10.1 52 5.7 NE 6 9 3 5 1009.3 1007.5 0.0
20/10:30pm 20.6 20.4 9.2 48 6.2 CALM 0 0 0 0 1009.6 1007.8 0.0
20/10:00pm 21.6 20.5 9.8 47 6.6 ENE 6 7 3 4 1009.6 1007.8 0.0
20/09:30pm 22.3 21.7 8.8 42 7.4 E 2 7 1 4 1009.5 1007.7 0.0
20/09:00pm 22.2 22.1 9.4 44 7.1 CALM 0 0 0 0 1009.3 1007.5 0.0
20/08:30pm 23.7 23.1 7.3 35 8.8 CALM 0 0 0 0 1009.2 1007.4 0.0
20/08:00pm 26.1 24.7 7.2 30 10.3 NNW 4 6 2 3 1009.1 1007.3 0.0
20/07:30pm 27.8 24.8 6.0 25 11.7 NW 11 20 6 11 1009.0 1007.2 0.0
20/07:00pm 29.0 25.2 5.8 23 12.5 WNW 15 22 8 12 1009.0 1007.2 0.0
20/06:30pm 29.2 26.6 6.0 23 12.6 W 9 17 5 9 1008.9 1007.1 0.0
20/06:00pm 28.5 25.0 5.4 23 12.4 WNW 13 24 7 13 1008.9 1007.1 0.0
20/05:30pm 29.9 24.9 4.5 20 13.5 NW 20 32 11 17 1008.9 1007.1 0.0
20/05:00pm 29.9 25.6 5.2 21 13.3 WNW 17 28 9 15 1009.1 1007.3 0.0
20/04:30pm 29.7 25.4 5.1 21 13.1 WNW 17 30 9 16 1009.4 1007.6 0.0
20/04:00pm 29.4 25.2 5.5 22 12.9 W 17 22 9 12 1009.8 1008.0 0.0
20/03:30pm 29.4 24.5 4.1 20 13.3 W 19 28 10 15 1010.1 1008.4 0.0
20/03:00pm 29.7 25.0 5.1 21 13.2 NW 19 32 10 17 1010.6 1008.8 0.0
20/02:30pm 29.4 24.0 2.6 18 13.7 W 20 32 11 17 1011.2 1009.4 0.0
20/02:00pm 29.0 24.2 4.5 21 12.9 W 19 30 10 16 1011.7 1010.0 0.0
20/01:30pm 28.2 23.2 4.5 22 12.4 WNW 20 35 11 19 1012.4 1010.6 0.0
20/01:00pm 27.2 21.5 3.0 21 12.3 WNW 22 35 12 19 1012.8 1011.0 0.0
20/12:30pm 26.9 21.5 2.7 21 12.2 WNW 20 32 11 17 1013.1 1011.4 0.0
20/12:00pm 28.0 23.1 5.0 23 12.2 NW 20 33 11 18 1013.4 1011.7 0.0
20/11:30am 26.4 22.2 5.9 27 10.9 NW 17 24 9 13 1014.0 1012.2 0.0
20/11:00am 25.4 22.1 6.6 30 10.1 NNW 13 22 7 12 1014.3 1012.5 0.0
20/10:30am 23.3 20.2 5.7 32 9.2 NNW 11 19 6 10 1014.7 1013.0 0.0
20/10:00am 21.5 19.7 8.1 42 7.2 N 7 11 4 6 1014.9 1013.2 0.0
20/09:30am 19.7 18.9 9.6 52 5.5 NE 4 7 2 4 1015.5 1013.8 0.0
20/09:00am 17.6 16.6 8.7 56 4.7 S 4 9 2 5 1016.2 1014.5 0.0
20/08:30am 15.6 14.6 8.8 64 3.6 W 4 7 2 4 1016.4 1014.7 0.0
20/08:00am 13.0 12.6 8.3 73 2.4 CALM 0 0 0 0 1016.5 1014.8 0.0
20/07:30am 11.1 10.7 8.1 82 1.5 CALM 0 0 0 0 1016.4 1014.7 0.0
20/07:00am 10.1 9.5 7.5 84 1.3 CALM 0 4 0 2 1016.1 1014.4 0.0
20/06:30am 9.6 9.2 8.2 91 0.7 CALM 0 0 0 0 1015.8 1014.0 0.0
20/06:00am 7.8 7.0 6.7 93 0.5 CALM 0 0 0 0 1015.9 1014.1 0.0
20/05:30am 7.7 6.9 6.5 92 0.6 CALM 0 0 0 0 1015.7 1013.9 0.0
20/05:00am 8.0 7.2 6.6 91 0.7 CALM 0 0 0 0 1015.7 1013.9 0.0
20/04:30am 8.2 7.4 6.7 90 0.7 CALM 0 0 0 0 1015.4 1013.7 0.0
20/04:00am 8.9 8.2 6.9 87 1.0 CALM 0 0 0 0 1015.5 1013.8 0.0
20/03:30am 8.7 7.9 6.5 86 1.1 CALM 0 0 0 0 1015.7 1013.9 0.0
20/03:00am 9.3 8.6 6.9 85 1.2 CALM 0 0 0 0 1015.4 1013.7 0.0
20/02:30am 9.6 8.9 6.9 83 1.3 CALM 0 0 0 0 1015.5 1013.8 0.0
20/02:00am 10.4 9.7 7.1 80 1.6 CALM 0 0 0 0 1015.8 1014.0 0.0
20/01:30am 10.2 9.6 7.3 82 1.4 CALM 0 0 0 0 1016.1 1014.4 0.0
20/01:00am 10.7 10.0 7.0 78 1.8 CALM 0 0 0 0 1016.2 1014.5 0.0
20/12:30am 11.7 10.3 7.2 74 2.2 E 4 7 2 4 1016.3 1014.6 0.0
20/12:00am 13.0 11.7 7.7 70 2.7 ENE 4 7 2 4 1016.4 1014.7 0.0
 
Date/Time
EDT
Tmp

°C
App
Tmp
°C
Dew
Point
°C
Rel
Hum
%
Delta-T

°C
Wind Press
QNH
hPa
Press
MSL
hPa
Rain
since
9 am
mm
Dir
 
Spd
km/h
Gust
km/h
Spd
kts
Gust
kts
19/11:30pm 12.5 11.9 7.2 70 2.6 CALM 0 0 0 0 1016.3 1014.6 0.0
19/11:00pm 13.5 12.9 7.3 66 3.1 CALM 0 6 0 3 1016.2 1014.5 0.0
19/10:30pm 14.8 13.2 7.8 63 3.6 ENE 6 7 3 4 1016.5 1014.8 0.0
19/10:00pm 15.1 14.3 6.7 57 4.2 CALM 0 6 0 3 1016.4 1014.7 0.0
19/09:30pm 17.0 15.0 7.1 52 5.1 E 7 46 4 25 1016.2 1014.5 0.0
19/09:00pm 17.8 17.0 6.7 48 5.7 CALM 0 0 0 0 1016.1 1014.4 0.0
19/08:30pm 19.2 18.3 6.0 42 6.7 CALM 0 0 0 0 1016.0 1014.3 0.0
19/08:00pm 21.2 18.7 4.7 34 8.3 W 7 7 4 4 1016.0 1014.3 0.0
19/07:30pm 23.2 20.2 4.2 29 9.6 W 9 13 5 7 1015.5 1013.8 0.0
19/07:00pm 25.0 20.8 3.6 25 10.8 WNW 15 22 8 12 1015.4 1013.7 0.0
19/06:30pm 25.5 20.9 3.5 24 11.2 WNW 17 24 9 13 1015.1 1013.4 0.0
19/06:00pm 25.9 21.2 3.2 23 11.5 WNW 17 24 9 13 1015.2 1013.5 0.0
19/05:30pm 26.1 22.5 5.1 26 11.0 WNW 13 22 7 12 1015.5 1013.8 0.0
19/05:00pm 26.3 21.9 4.7 25 11.2 WNW 17 24 9 13 1015.7 1013.9 0.0
19/04:30pm 26.3 22.4 5.3 26 11.0 NW 15 26 8 14 1015.8 1014.0 0.0
19/04:00pm 27.0 24.2 5.3 25 11.5 W 9 24 5 13 1016.1 1014.4 0.0
19/03:30pm 25.1 21.6 5.3 28 10.3 WNW 13 22 7 12 1016.6 1014.9 0.0
19/03:00pm 25.7 22.9 6.8 30 10.2 NW 11 20 6 11 1017.2 1015.5 0.0
19/02:30pm 24.9 21.9 7.5 33 9.4 N 13 26 7 14 1017.9 1016.2 0.0
19/02:00pm 24.3 20.4 7.0 33 9.3 WSW 17 22 9 12 1018.2 1016.5 0.0

Latest Capital City Observations: Canberra | Sydney | Melbourne | Brisbane | Adelaide | Perth | Hobart | Darwin

Other Formats:

Comma delimited format used in spreadsheet applications
http://www.bom.gov.au/fwo/IDN60903/IDN60903.94925.axf

JavaScript Object Notation format (JSON) in row-major order
http://www.bom.gov.au/fwo/IDN60903/IDN60903.94925.json